createdAt,value
2023-05-02T00:03:37.028Z,74.03
2023-05-02T00:06:05.665Z,73.95
2023-05-02T00:08:36.260Z,73.83
2023-05-02T00:11:05.153Z,73.49
2023-05-02T00:13:33.334Z,73.17
2023-05-02T00:16:02.120Z,72.89
2023-05-02T00:18:30.318Z,72.49
2023-05-02T00:20:58.557Z,71.91
2023-05-02T00:23:28.063Z,71.13
2023-05-02T00:25:56.249Z,71.45
2023-05-02T00:28:25.136Z,71.12
2023-05-02T00:30:53.900Z,70.90
2023-05-02T00:33:22.435Z,70.58
2023-05-02T00:35:50.616Z,70.47
2023-05-02T00:38:19.397Z,70.62
2023-05-02T00:40:50.597Z,70.72
2023-05-02T00:43:19.434Z,70.64
2023-05-02T00:45:48.704Z,70.45
2023-05-02T00:48:17.583Z,70.29
2023-05-02T00:50:45.929Z,69.93
2023-05-02T00:53:14.131Z,69.92
2023-05-02T00:55:43.534Z,69.92
2023-05-02T00:58:15.392Z,69.86
2023-05-02T01:00:44.093Z,70.02
2023-05-02T01:03:30.344Z,69.99
2023-05-02T01:06:17.652Z,70.21
2023-05-02T01:09:18.768Z,70.35
2023-05-02T01:12:27.637Z,70.50
2023-05-02T01:15:17.300Z,70.39
2023-05-02T01:17:47.598Z,70.43
2023-05-02T01:20:21.049Z,70.42
2023-05-02T01:22:51.001Z,70.62
2023-05-02T01:25:31.409Z,70.78
2023-05-02T01:28:32.164Z,70.86
2023-05-02T01:31:03.512Z,70.98
2023-05-02T01:33:35.605Z,71.19
2023-05-02T01:36:04.396Z,71.24
2023-05-02T01:38:35.172Z,71.35
2023-05-02T01:41:06.397Z,71.39
2023-05-02T01:43:37.023Z,71.45
2023-05-02T01:46:08.984Z,71.54
2023-05-02T01:48:38.015Z,71.68
2023-05-02T01:51:08.637Z,71.74
2023-05-02T01:53:39.129Z,71.80
2023-05-02T01:56:07.945Z,71.87
2023-05-02T01:58:38.355Z,72.02
2023-05-02T02:01:09.900Z,72.14
2023-05-02T02:03:38.812Z,72.23
2023-05-02T02:06:09.493Z,72.22
2023-05-02T02:08:38.097Z,72.27
2023-05-02T02:11:10.938Z,72.26
2023-05-02T02:13:45.370Z,72.32
2023-05-02T02:16:23.254Z,72.35
2023-05-02T02:18:55.180Z,72.37
2023-05-02T02:21:26.785Z,72.42
2023-05-02T02:24:02.010Z,72.34
2023-05-02T02:26:31.783Z,72.37
2023-05-02T02:29:02.143Z,72.34
2023-05-02T02:31:34.930Z,72.45
2023-05-02T02:34:03.951Z,72.70
2023-05-02T02:36:40.096Z,72.38
2023-05-02T02:39:31.117Z,72.32
2023-05-02T02:42:23.131Z,72.31
2023-05-02T02:45:35.443Z,72.16
2023-05-02T02:48:28.877Z,72.04
2023-05-02T02:51:13.191Z,71.77
2023-05-02T02:54:02.377Z,71.61
2023-05-02T02:56:46.233Z,71.55
2023-05-02T02:59:32.347Z,71.53
2023-05-02T03:02:08.494Z,71.63
2023-05-02T03:04:44.606Z,71.42
2023-05-02T03:07:12.826Z,71.45
2023-05-02T03:09:46.723Z,71.29
2023-05-02T03:12:15.685Z,71.30
2023-05-02T03:14:44.042Z,71.37
2023-05-02T03:17:12.852Z,71.34
2023-05-02T03:19:42.766Z,71.41
2023-05-02T03:22:11.980Z,71.42
2023-05-02T03:24:41.969Z,71.44
2023-05-02T03:27:10.219Z,71.46
2023-05-02T03:29:39.200Z,71.48
2023-05-02T03:32:08.769Z,71.54
2023-05-02T03:34:37.088Z,71.52
2023-05-02T03:37:05.754Z,71.52
2023-05-02T03:39:34.599Z,71.56
2023-05-02T03:42:04.389Z,71.56
2023-05-02T03:44:32.617Z,71.61
2023-05-02T03:47:01.914Z,71.56
2023-05-02T03:49:30.470Z,71.57
2023-05-02T03:51:59.383Z,71.62
2023-05-02T03:54:33.399Z,71.61
2023-05-02T03:57:02.914Z,71.64
2023-05-02T03:59:35.363Z,71.66
2023-05-02T04:02:05.301Z,71.67
2023-05-02T04:04:34.396Z,71.74
2023-05-02T04:07:03.448Z,71.77
2023-05-02T04:09:31.636Z,71.89
2023-05-02T04:12:00.385Z,71.94
2023-05-02T04:14:28.839Z,72.01
2023-05-02T04:16:58.230Z,72.07
2023-05-02T04:19:26.300Z,72.11
2023-05-02T04:21:54.311Z,72.15
2023-05-02T04:24:23.521Z,72.10
2023-05-02T04:26:52.177Z,72.13
2023-05-02T04:29:20.898Z,72.16
2023-05-02T04:31:49.055Z,72.15
2023-05-02T04:34:17.676Z,72.16
2023-05-02T04:36:47.136Z,72.08
2023-05-02T04:39:15.526Z,72.12
2023-05-02T04:41:43.987Z,72.05
2023-05-02T04:44:12.194Z,71.94
2023-05-02T04:46:42.610Z,71.94
2023-05-02T04:49:10.923Z,71.92
2023-05-02T04:51:39.952Z,71.97
2023-05-02T04:54:08.757Z,71.94
2023-05-02T04:56:38.149Z,71.87
2023-05-02T04:59:06.845Z,71.82
2023-05-02T05:01:35.512Z,71.82
2023-05-02T05:04:04.656Z,71.82
2023-05-02T05:06:33.481Z,71.74
2023-05-02T05:09:03.004Z,71.53
2023-05-02T05:11:32.220Z,71.48
2023-05-02T05:14:01.413Z,71.23
2023-05-02T05:16:30.118Z,70.94
2023-05-02T05:18:58.354Z,70.89
2023-05-02T05:21:26.750Z,70.74
2023-05-02T05:23:54.977Z,70.59
2023-05-02T05:26:24.209Z,70.34
2023-05-02T05:28:52.967Z,70.29
2023-05-02T05:31:21.871Z,70.27
2023-05-02T05:33:51.644Z,70.24
2023-05-02T05:36:21.465Z,70.19
2023-05-02T05:38:52.652Z,70.26
2023-05-02T05:41:22.997Z,70.16
2023-05-02T05:43:51.115Z,70.06
2023-05-02T05:46:20.390Z,69.98
2023-05-02T05:48:48.668Z,69.87
2023-05-02T05:51:17.064Z,69.59
2023-05-02T05:53:45.837Z,69.38
2023-05-02T05:56:14.164Z,68.97
2023-05-02T05:58:42.348Z,68.73
2023-05-02T06:01:10.860Z,68.43
2023-05-02T06:03:40.136Z,68.19
2023-05-02T06:06:08.771Z,67.96
2023-05-02T06:08:38.015Z,67.70
2023-05-02T06:11:10.612Z,67.43
2023-05-02T06:13:39.406Z,67.12
2023-05-02T06:16:08.127Z,66.73
2023-05-02T06:18:36.293Z,66.31
2023-05-02T06:21:07.473Z,65.73
2023-05-02T06:23:38.710Z,64.15
2023-05-02T06:26:07.820Z,60.76
2023-05-02T06:28:36.417Z,56.28
2023-05-02T06:31:06.444Z,52.18
2023-05-02T06:33:37.731Z,49.29
2023-05-02T06:36:06.216Z,47.29
2023-05-02T06:38:34.903Z,45.98
2023-05-02T06:41:03.712Z,45.92
2023-05-02T06:43:32.606Z,46.01
2023-05-02T06:46:01.945Z,46.12
2023-05-02T06:48:30.423Z,46.72
2023-05-02T06:50:59.795Z,46.77
2023-05-02T06:53:27.919Z,46.42
2023-05-02T06:55:57.031Z,45.99
2023-05-02T06:58:25.195Z,44.89
2023-05-02T07:00:53.796Z,43.25
2023-05-02T07:03:22.196Z,41.16
2023-05-02T07:05:53.253Z,38.98
2023-05-02T07:08:22.980Z,36.96
2023-05-02T07:10:51.948Z,35.01
2023-05-02T07:13:20.943Z,33.27
2023-05-02T07:15:49.304Z,31.74
2023-05-02T07:18:17.973Z,29.89
2023-05-02T07:20:48.408Z,28.68
2023-05-02T07:23:18.326Z,27.95
2023-05-02T07:25:48.215Z,27.15
2023-05-02T07:28:16.313Z,25.96
2023-05-02T07:30:45.446Z,24.89
2023-05-02T07:33:15.381Z,24.14
2023-05-02T07:35:44.558Z,23.28
2023-05-02T07:38:12.926Z,22.41
2023-05-02T07:40:42.499Z,21.96
2023-05-02T07:43:11.254Z,21.42
2023-05-02T07:45:40.399Z,20.91
2023-05-02T07:48:10.382Z,20.27
2023-05-02T07:50:39.399Z,19.95
2023-05-02T07:53:07.583Z,19.59
2023-05-02T07:55:36.268Z,19.24
2023-05-02T07:58:04.413Z,18.87
2023-05-02T08:00:32.529Z,19.24
2023-05-02T08:03:00.990Z,19.43
2023-05-02T08:05:30.758Z,19.23
2023-05-02T08:07:59.703Z,18.86
2023-05-02T08:10:29.193Z,19.45
2023-05-02T08:12:57.430Z,19.57
2023-05-02T08:15:25.880Z,19.55
2023-05-02T08:17:55.408Z,19.64
2023-05-02T08:20:23.831Z,19.75
2023-05-02T08:22:52.502Z,20.00
2023-05-02T08:25:20.953Z,19.90
2023-05-02T08:27:49.292Z,19.87
2023-05-02T08:30:17.494Z,20.22
2023-05-02T08:32:46.553Z,21.21
2023-05-02T08:35:15.397Z,22.90
2023-05-02T08:37:43.481Z,24.67
2023-05-02T08:40:13.167Z,26.06
2023-05-02T08:42:43.697Z,27.26
2023-05-02T08:45:14.186Z,28.64
2023-05-02T08:47:46.068Z,30.15
2023-05-02T08:50:16.984Z,31.31
2023-05-02T08:52:47.827Z,32.31
2023-05-02T08:55:16.318Z,33.11
2023-05-02T08:57:44.799Z,33.57
2023-05-02T09:00:14.697Z,34.53
2023-05-02T09:03:01.093Z,35.46
2023-05-02T09:05:33.825Z,35.28
2023-05-02T09:08:02.075Z,36.16
2023-05-02T09:10:31.467Z,37.01
2023-05-02T09:13:43.311Z,37.55
2023-05-02T09:16:14.928Z,38.03
2023-05-02T09:18:45.983Z,38.04
2023-05-02T09:21:22.911Z,38.23
2023-05-02T09:23:55.802Z,38.66
2023-05-02T09:26:25.942Z,39.28
2023-05-02T09:28:55.946Z,40.26
2023-05-02T09:34:12.288Z,41.81
2023-05-02T09:36:47.802Z,41.48
2023-05-02T09:39:19.119Z,42.31
2023-05-02T09:41:48.942Z,44.68
2023-05-02T09:44:20.441Z,45.06
2023-05-02T09:46:51.716Z,46.32
2023-05-02T09:49:40.492Z,47.56
2023-05-02T09:52:19.948Z,50.72
2023-05-02T09:54:49.204Z,52.91
2023-05-02T09:57:17.316Z,53.48
2023-05-02T09:59:56.714Z,53.93
2023-05-02T10:02:26.226Z,54.84
2023-05-02T10:04:58.317Z,55.35
2023-05-02T10:07:27.156Z,55.35
2023-05-02T10:09:58.685Z,56.52
2023-05-02T10:12:28.818Z,57.19
2023-05-02T10:15:03.232Z,57.96
2023-05-02T10:17:34.207Z,58.15
2023-05-02T10:20:08.156Z,58.37
2023-05-02T10:22:37.938Z,58.52
2023-05-02T10:25:07.161Z,58.66
2023-05-02T10:27:35.985Z,58.50
2023-05-02T10:30:06.147Z,58.80
2023-05-02T10:32:34.450Z,59.12
2023-05-02T10:35:06.273Z,59.00
2023-05-02T10:37:38.180Z,58.60
2023-05-02T10:40:11.136Z,58.91
2023-05-02T10:42:43.185Z,59.30
2023-05-02T10:45:30.781Z,60.54
2023-05-02T10:48:17.852Z,60.78
2023-05-02T10:50:50.957Z,61.01
2023-05-02T10:53:31.753Z,60.97
2023-05-02T10:56:22.279Z,60.01
2023-05-02T10:59:14.275Z,59.66
2023-05-02T11:01:42.439Z,58.45
2023-05-02T11:04:10.890Z,57.22
2023-05-02T11:07:18.125Z,56.55
2023-05-02T11:09:46.858Z,56.15
2023-05-02T11:12:49.367Z,56.42
2023-05-02T11:15:29.735Z,55.99
2023-05-02T11:18:03.324Z,56.16
2023-05-02T11:20:31.892Z,55.54
2023-05-02T11:23:21.009Z,56.07
2023-05-02T11:25:53.627Z,56.38
2023-05-02T11:28:37.525Z,56.61
2023-05-02T11:31:07.497Z,55.62
2023-05-02T11:33:36.085Z,56.48
2023-05-02T11:36:07.211Z,56.75
2023-05-02T11:38:39.474Z,56.48
2023-05-02T11:41:08.581Z,56.08
2023-05-02T11:43:38.566Z,55.31
2023-05-02T11:46:07.244Z,55.19
2023-05-02T11:48:36.381Z,54.35
2023-05-02T11:51:05.447Z,51.84
2023-05-02T11:53:34.510Z,51.38
2023-05-02T11:56:06.812Z,51.71
2023-05-02T11:58:34.928Z,51.19
2023-05-02T12:01:14.667Z,52.14
2023-05-02T12:03:43.755Z,53.69
2023-05-02T12:06:14.137Z,54.50
2023-05-02T12:08:44.565Z,54.59
2023-05-02T12:11:15.406Z,54.45
2023-05-02T12:13:50.873Z,55.11
2023-05-02T12:16:19.905Z,55.80
2023-05-02T12:18:48.826Z,55.16
2023-05-02T12:21:18.733Z,55.89
2023-05-02T12:23:47.871Z,56.53
2023-05-02T12:26:27.344Z,57.15
2023-05-02T12:28:55.832Z,56.77
2023-05-02T12:31:25.553Z,56.19
2023-05-02T12:33:54.439Z,56.39
2023-05-02T12:36:22.545Z,56.25
2023-05-02T12:38:56.434Z,56.11
2023-05-02T12:41:39.345Z,56.12
2023-05-02T12:44:08.106Z,56.89
2023-05-02T12:46:36.852Z,56.97
2023-05-02T12:49:09.628Z,56.87
2023-05-02T12:51:40.148Z,57.36
2023-05-02T12:54:08.853Z,58.24
2023-05-02T12:56:42.012Z,58.88
2023-05-02T12:59:26.090Z,58.84
2023-05-02T13:01:54.990Z,59.21
2023-05-02T13:04:37.222Z,59.41
2023-05-02T13:07:05.489Z,59.96
2023-05-02T13:09:33.899Z,60.32
2023-05-02T13:12:02.015Z,60.80
2023-05-02T13:14:31.255Z,60.34
2023-05-02T13:16:59.996Z,60.39
2023-05-02T13:19:30.781Z,60.44
2023-05-02T13:21:59.840Z,60.48
2023-05-02T13:24:29.281Z,60.18
2023-05-02T13:26:58.776Z,59.90
2023-05-02T13:29:28.741Z,59.85
2023-05-02T13:31:56.861Z,59.66
2023-05-02T13:34:25.048Z,59.50
2023-05-02T13:36:56.213Z,59.62
2023-05-02T13:39:25.297Z,59.55
2023-05-02T13:41:53.655Z,60.39
2023-05-02T13:44:22.403Z,61.32
2023-05-02T13:46:51.216Z,61.77
2023-05-02T13:49:19.957Z,62.04
2023-05-02T13:51:48.944Z,62.15
2023-05-02T13:54:17.073Z,62.05
2023-05-02T13:56:45.402Z,61.96
2023-05-02T13:59:13.652Z,62.04
2023-05-02T14:01:41.829Z,62.09
2023-05-02T14:04:10.611Z,62.13
2023-05-02T14:06:39.030Z,62.01
2023-05-02T14:09:08.569Z,62.10
2023-05-02T14:11:36.901Z,62.47
2023-05-02T14:14:06.369Z,62.75
2023-05-02T14:16:34.623Z,62.99
2023-05-02T14:19:03.388Z,62.91
2023-05-02T14:21:31.719Z,62.21
2023-05-02T14:24:01.145Z,61.66
2023-05-02T14:26:29.414Z,61.47
2023-05-02T14:28:58.344Z,61.37
2023-05-02T14:31:26.502Z,61.33
2023-05-02T14:33:54.962Z,60.93
2023-05-02T14:36:24.244Z,60.80
2023-05-02T14:38:52.894Z,60.59
2023-05-02T14:41:21.825Z,60.95
2023-05-02T14:43:52.629Z,61.55
2023-05-02T14:46:23.159Z,61.90
2023-05-02T14:48:51.646Z,62.18
2023-05-02T14:51:20.032Z,62.25
2023-05-02T14:53:48.671Z,62.29
2023-05-02T14:56:17.069Z,62.20
2023-05-02T14:58:45.984Z,62.22
2023-05-02T15:01:19.479Z,62.46
2023-05-02T15:04:04.344Z,61.96
2023-05-02T15:06:36.225Z,61.68
2023-05-02T15:09:06.056Z,62.00
2023-05-02T15:11:34.611Z,62.20
2023-05-02T15:14:03.602Z,62.38
2023-05-02T15:16:32.525Z,62.40
2023-05-02T15:19:01.275Z,62.13
2023-05-02T15:21:31.251Z,61.96
2023-05-02T15:24:00.346Z,61.83
2023-05-02T15:26:28.859Z,61.58
2023-05-02T15:28:57.732Z,61.23
2023-05-02T15:31:25.961Z,61.07
2023-05-02T15:33:54.221Z,61.20
2023-05-02T15:36:27.395Z,61.23
2023-05-02T15:38:57.220Z,61.27
2023-05-02T15:41:25.997Z,61.36
2023-05-02T15:43:54.265Z,61.39
2023-05-02T15:46:24.660Z,61.47
2023-05-02T15:48:53.001Z,61.59
2023-05-02T15:51:22.298Z,61.69
2023-05-02T15:53:51.926Z,61.81
2023-05-02T15:56:20.752Z,61.96
2023-05-02T15:58:49.345Z,62.04
2023-05-02T16:01:18.350Z,62.09
2023-05-02T16:03:46.682Z,62.16
2023-05-02T16:06:16.633Z,62.35
2023-05-02T16:08:45.021Z,62.60
2023-05-02T16:11:13.950Z,62.50
2023-05-02T16:13:42.624Z,62.59
2023-05-02T16:16:12.418Z,63.33
2023-05-02T16:18:40.653Z,63.73
2023-05-02T16:21:09.606Z,64.22
2023-05-02T16:23:38.354Z,64.66
2023-05-02T16:26:06.444Z,64.61
2023-05-02T16:28:35.092Z,64.84
2023-05-02T16:31:07.080Z,64.97
2023-05-02T16:33:35.857Z,64.78
2023-05-02T16:36:04.652Z,64.50
2023-05-02T16:38:33.124Z,64.50
2023-05-02T16:41:06.191Z,64.91
2023-05-02T16:43:34.587Z,65.05
2023-05-02T16:46:08.667Z,65.39
2023-05-02T16:48:37.664Z,65.63
2023-05-02T16:51:06.259Z,65.65
2023-05-02T16:53:34.723Z,65.54
2023-05-02T16:56:03.202Z,65.46
2023-05-02T16:58:31.326Z,65.27
2023-05-02T17:01:02.038Z,65.34
2023-05-02T17:03:30.724Z,65.19
2023-05-02T17:06:00.294Z,65.18
2023-05-02T17:08:29.282Z,64.95
2023-05-02T17:10:57.623Z,64.89
2023-05-02T17:13:27.015Z,64.66
2023-05-02T17:15:55.305Z,64.61
2023-05-02T17:18:23.686Z,63.54
2023-05-02T17:20:54.022Z,63.68
2023-05-02T17:23:22.790Z,64.00
2023-05-02T17:25:51.403Z,63.81
2023-05-02T17:28:21.205Z,63.17
2023-05-02T17:30:49.389Z,63.49
2023-05-02T17:33:17.687Z,63.91
2023-05-02T17:35:47.005Z,64.03
2023-05-02T17:38:15.279Z,64.23
2023-05-02T17:40:43.846Z,64.79
2023-05-02T17:43:12.202Z,65.01
2023-05-02T17:45:41.455Z,65.24
2023-05-02T17:48:09.855Z,65.25
2023-05-02T17:50:39.653Z,65.06
2023-05-02T17:53:08.266Z,65.17
2023-05-02T17:55:37.975Z,65.40
2023-05-02T17:58:06.242Z,65.37
2023-05-02T18:00:35.426Z,65.51
2023-05-02T18:03:04.240Z,65.58
2023-05-02T18:05:38.504Z,65.77
2023-05-02T18:08:07.430Z,65.77
2023-05-02T18:10:38.731Z,65.75
2023-05-02T18:13:08.394Z,65.97
2023-05-02T18:15:37.328Z,66.36
2023-05-02T18:18:05.756Z,66.52
2023-05-02T18:20:40.983Z,66.78
2023-05-02T18:23:09.812Z,67.13
2023-05-02T18:25:38.385Z,67.45
2023-05-02T18:28:06.489Z,67.50
2023-05-02T18:30:39.309Z,67.88
2023-05-02T18:33:07.840Z,68.13
2023-05-02T18:35:36.893Z,68.31
2023-05-02T18:38:08.008Z,68.49
2023-05-02T18:40:37.448Z,68.98
2023-05-02T18:43:07.832Z,69.14
2023-05-02T18:45:37.332Z,69.36
2023-05-02T18:48:06.762Z,69.31
2023-05-02T18:50:35.355Z,69.41
2023-05-02T18:53:03.595Z,69.60
2023-05-02T18:55:33.551Z,70.06
2023-05-02T18:58:01.797Z,70.48
2023-05-02T19:00:30.292Z,70.79
2023-05-02T19:02:59.335Z,71.01
2023-05-02T19:05:27.651Z,71.47
2023-05-02T19:07:56.238Z,71.42
2023-05-02T19:10:25.469Z,71.50
2023-05-02T19:12:54.065Z,71.63
2023-05-02T19:15:22.880Z,71.69
2023-05-02T19:17:51.144Z,71.78
2023-05-02T19:20:21.358Z,72.18
2023-05-02T19:22:49.999Z,72.40
2023-05-02T19:25:18.550Z,72.53
2023-05-02T19:27:46.667Z,72.47
2023-05-02T19:30:16.638Z,72.41
2023-05-02T19:32:45.321Z,72.18
2023-05-02T19:35:14.444Z,72.09
2023-05-02T19:37:44.289Z,71.65
2023-05-02T19:40:14.033Z,70.90
2023-05-02T19:42:43.321Z,70.79
2023-05-02T19:45:12.387Z,70.11
2023-05-02T19:47:41.571Z,68.85
2023-05-02T19:50:10.676Z,68.32
2023-05-02T19:52:39.921Z,67.01
2023-05-02T19:55:11.716Z,67.27
2023-05-02T19:57:39.819Z,66.67
2023-05-02T20:00:08.703Z,66.53
2023-05-02T20:02:37.184Z,65.66
2023-05-02T20:05:05.772Z,65.69
2023-05-02T20:07:34.913Z,66.35
2023-05-02T20:10:04.933Z,66.92
2023-05-02T20:12:33.374Z,67.45
2023-05-02T20:15:01.650Z,67.74
2023-05-02T20:17:31.119Z,67.86
2023-05-02T20:19:59.947Z,68.10
2023-05-02T20:22:29.607Z,68.44
2023-05-02T20:24:57.783Z,68.66
2023-05-02T20:27:26.761Z,68.95
2023-05-02T20:29:55.858Z,69.10
2023-05-02T20:32:24.058Z,69.29
2023-05-02T20:34:52.610Z,68.87
2023-05-02T20:37:21.848Z,68.82
2023-05-02T20:39:50.577Z,68.84
2023-05-02T20:42:18.733Z,68.82
2023-05-02T20:44:47.138Z,68.67
2023-05-02T20:47:15.921Z,68.10
2023-05-02T20:49:45.090Z,67.83
2023-05-02T20:52:14.140Z,67.68
2023-05-02T20:54:44.073Z,67.20
2023-05-02T20:57:14.263Z,67.60
2023-05-02T20:59:44.094Z,68.48
2023-05-02T21:02:12.625Z,68.07
2023-05-02T21:04:40.723Z,67.80
2023-05-02T21:07:09.020Z,68.07
2023-05-02T21:09:37.177Z,67.96
2023-05-02T21:12:05.628Z,67.45
2023-05-02T21:14:34.966Z,67.70
2023-05-02T21:17:03.577Z,67.97
2023-05-02T21:19:32.276Z,66.90
2023-05-02T21:22:00.681Z,67.01
2023-05-02T21:24:29.837Z,66.70
2023-05-02T21:26:58.828Z,66.77
2023-05-02T21:29:27.650Z,66.62
2023-05-02T21:31:55.708Z,66.21
2023-05-02T21:34:24.549Z,65.78
2023-05-02T21:36:52.684Z,65.38
2023-05-02T21:39:21.298Z,64.80
2023-05-02T21:41:50.371Z,64.52
2023-05-02T21:44:19.277Z,64.50
2023-05-02T21:46:47.481Z,65.20
2023-05-02T21:49:15.871Z,66.13
2023-05-02T21:51:44.357Z,66.53
2023-05-02T21:54:13.446Z,66.93
2023-05-02T21:56:41.815Z,66.84
2023-05-02T21:59:11.583Z,67.15
2023-05-02T22:01:40.825Z,67.84
2023-05-02T22:04:09.666Z,69.50
2023-05-02T22:06:38.170Z,70.73
2023-05-02T22:09:06.536Z,71.93
2023-05-02T22:11:35.032Z,72.55
2023-05-02T22:14:03.651Z,73.66
2023-05-02T22:16:32.773Z,74.17
2023-05-02T22:19:02.388Z,75.17
2023-05-02T22:21:31.620Z,75.18
2023-05-02T22:23:59.854Z,75.13
2023-05-02T22:26:28.458Z,76.16
2023-05-02T22:28:56.693Z,76.61
2023-05-02T22:31:25.659Z,76.82
2023-05-02T22:33:54.625Z,76.78
2023-05-02T22:36:22.707Z,76.71
2023-05-02T22:38:52.030Z,76.83
2023-05-02T22:41:20.231Z,76.79
2023-05-02T22:43:48.449Z,76.80
2023-05-02T22:46:17.559Z,76.81
2023-05-02T22:48:46.852Z,77.01
2023-05-02T22:51:15.757Z,77.21
2023-05-02T22:53:44.392Z,77.23
2023-05-02T22:56:14.008Z,77.21
2023-05-02T22:58:43.279Z,77.21
2023-05-02T23:01:11.965Z,77.36
2023-05-02T23:03:40.598Z,77.49
2023-05-02T23:06:08.841Z,77.71
2023-05-02T23:08:38.074Z,77.80
2023-05-02T23:11:07.317Z,77.74
2023-05-02T23:13:36.270Z,77.66
2023-05-02T23:16:05.767Z,77.71
2023-05-02T23:18:34.775Z,77.58
2023-05-02T23:21:04.215Z,77.71
2023-05-02T23:23:32.839Z,77.66
2023-05-02T23:26:01.752Z,77.80
2023-05-02T23:28:30.844Z,77.82
2023-05-02T23:30:59.798Z,77.97
2023-05-02T23:33:31.264Z,77.82
2023-05-02T23:36:00.590Z,77.79
2023-05-02T23:38:29.295Z,77.79
2023-05-02T23:40:57.778Z,77.82
2023-05-02T23:43:26.789Z,77.81
2023-05-02T23:45:54.807Z,77.75
2023-05-02T23:48:24.738Z,77.60
2023-05-02T23:50:53.138Z,77.78
2023-05-02T23:53:22.846Z,77.92
2023-05-02T23:55:51.011Z,78.05
2023-05-02T23:58:20.005Z,77.80
